sensor_id;sensor_type;location;lat;lon;timestamp;P1;durP1;ratioP1;P2;durP2;ratioP2
14346;SDS011;7257;52.158;9.968;2022-07-10T00:00:08;4.40;;;1.83;;
14346;SDS011;7257;52.158;9.968;2022-07-10T00:00:31;2.40;;;1.52;;
14346;SDS011;7257;52.158;9.968;2022-07-10T00:00:52;1.52;;;1.42;;
14346;SDS011;7257;52.158;9.968;2022-07-10T00:01:13;1.60;;;1.33;;
14346;SDS011;7257;52.158;9.968;2022-07-10T00:01:35;1.60;;;1.25;;
14346;SDS011;7257;52.158;9.968;2022-07-10T00:01:56;2.03;;;1.03;;
14346;SDS011;7257;52.158;9.968;2022-07-10T00:02:17;1.70;;;1.10;;
14346;SDS011;7257;52.158;9.968;2022-07-10T00:02:38;2.40;;;1.00;;
14346;SDS011;7257;52.158;9.968;2022-07-10T00:03:00;3.03;;;1.85;;
14346;SDS011;7257;52.158;9.968;2022-07-10T00:03:22;3.40;;;2.20;;
14346;SDS011;7257;52.158;9.968;2022-07-10T00:03:43;2.85;;;2.30;;
14346;SDS011;7257;52.158;9.968;2022-07-10T00:04:08;2.83;;;1.63;;
14346;SDS011;7257;52.158;9.968;2022-07-10T00:04:29;2.70;;;1.40;;
14346;SDS011;7257;52.158;9.968;2022-07-10T00:04:51;3.08;;;1.70;;
14346;SDS011;7257;52.158;9.968;2022-07-10T00:05:12;3.53;;;2.17;;
14346;SDS011;7257;52.158;9.968;2022-07-10T00:05:33;3.72;;;2.15;;
14346;SDS011;7257;52.158;9.968;2022-07-10T00:05:55;2.35;;;1.77;;
14346;SDS011;7257;52.158;9.968;2022-07-10T00:06:17;1.65;;;1.42;;
14346;SDS011;7257;52.158;9.968;2022-07-10T00:06:39;1.70;;;1.42;;
14346;SDS011;7257;52.158;9.968;2022-07-10T00:07:03;2.60;;;1.60;;
14346;SDS011;7257;52.158;9.968;2022-07-10T00:07:24;2.60;;;1.88;;
14346;SDS011;7257;52.158;9.968;2022-07-10T00:07:45;3.95;;;1.85;;
14346;SDS011;7257;52.158;9.968;2022-07-10T00:08:07;4.13;;;2.10;;
14346;SDS011;7257;52.158;9.968;2022-07-10T00:08:27;3.78;;;2.05;;
14346;SDS011;7257;52.158;9.968;2022-07-10T00:08:48;3.83;;;2.13;;
14346;SDS011;7257;52.158;9.968;2022-07-10T00:09:09;3.08;;;1.98;;
14346;SDS011;7257;52.158;9.968;2022-07-10T00:09:31;2.88;;;1.67;;
14346;SDS011;7257;52.158;9.968;2022-07-10T00:09:52;3.42;;;1.40;;
14346;SDS011;7257;52.158;9.968;2022-07-10T00:10:13;3.50;;;1.38;;
14346;SDS011;7257;52.158;9.968;2022-07-10T00:10:34;4.43;;;1.50;;
14346;SDS011;7257;52.158;9.968;2022-07-10T00:10:56;4.10;;;1.58;;
14346;SDS011;7257;52.158;9.968;2022-07-10T00:11:17;4.25;;;1.70;;
14346;SDS011;7257;52.158;9.968;2022-07-10T00:11:38;3.03;;;1.75;;
14346;SDS011;7257;52.158;9.968;2022-07-10T00:11:59;2.42;;;1.98;;
14346;SDS011;7257;52.158;9.968;2022-07-10T00:12:20;2.47;;;1.98;;
14346;SDS011;7257;52.158;9.968;2022-07-10T00:12:42;3.55;;;2.28;;
14346;SDS011;7257;52.158;9.968;2022-07-10T00:13:03;3.67;;;2.03;;
14346;SDS011;7257;52.158;9.968;2022-07-10T00:13:27;3.42;;;1.38;;
14346;SDS011;7257;52.158;9.968;2022-07-10T00:13:48;2.83;;;1.15;;
14346;SDS011;7257;52.158;9.968;2022-07-10T00:14:09;2.30;;;1.20;;
14346;SDS011;7257;52.158;9.968;2022-07-10T00:14:31;2.72;;;1.35;;
14346;SDS011;7257;52.158;9.968;2022-07-10T00:14:52;2.42;;;1.42;;
14346;SDS011;7257;52.158;9.968;2022-07-10T00:15:13;2.85;;;1.48;;
14346;SDS011;7257;52.158;9.968;2022-07-10T00:15:35;3.70;;;1.60;;
14346;SDS011;7257;52.158;9.968;2022-07-10T00:15:57;4.72;;;1.90;;
14346;SDS011;7257;52.158;9.968;2022-07-10T00:16:18;4.47;;;1.85;;
14346;SDS011;7257;52.158;9.968;2022-07-10T00:16:39;4.05;;;1.38;;
14346;SDS011;7257;52.158;9.968;2022-07-10T00:17:02;3.03;;;1.50;;
14346;SDS011;7257;52.158;9.968;2022-07-10T00:17:24;4.00;;;1.90;;
14346;SDS011;7257;52.158;9.968;2022-07-10T00:17:46;3.20;;;1.90;;
14346;SDS011;7257;52.158;9.968;2022-07-10T00:18:07;2.33;;;1.45;;
14346;SDS011;7257;52.158;9.968;2022-07-10T00:18:28;2.60;;;1.15;;
14346;SDS011;7257;52.158;9.968;2022-07-10T00:18:49;4.90;;;1.30;;
14346;SDS011;7257;52.158;9.968;2022-07-10T00:19:10;4.70;;;1.30;;
14346;SDS011;7257;52.158;9.968;2022-07-10T00:19:32;3.90;;;1.55;;
14346;SDS011;7257;52.158;9.968;2022-07-10T00:19:53;4.60;;;1.60;;
14346;SDS011;7257;52.158;9.968;2022-07-10T00:20:14;5.00;;;1.90;;
14346;SDS011;7257;52.158;9.968;2022-07-10T00:20:35;5.07;;;1.85;;
14346;SDS011;7257;52.158;9.968;2022-07-10T00:20:58;3.00;;;2.05;;
14346;SDS011;7257;52.158;9.968;2022-07-10T00:21:26;2.47;;;1.80;;
14346;SDS011;7257;52.158;9.968;2022-07-10T00:21:49;1.83;;;1.52;;
14346;SDS011;7257;52.158;9.968;2022-07-10T00:22:10;3.33;;;1.83;;
14346;SDS011;7257;52.158;9.968;2022-07-10T00:22:34;5.30;;;1.92;;
14346;SDS011;7257;52.158;9.968;2022-07-10T00:22:56;6.60;;;1.73;;
14346;SDS011;7257;52.158;9.968;2022-07-10T00:23:20;3.85;;;1.75;;
14346;SDS011;7257;52.158;9.968;2022-07-10T00:23:41;5.43;;;1.73;;
14346;SDS011;7257;52.158;9.968;2022-07-10T00:24:02;5.55;;;1.52;;
14346;SDS011;7257;52.158;9.968;2022-07-10T00:24:25;5.68;;;2.00;;
14346;SDS011;7257;52.158;9.968;2022-07-10T00:24:46;4.10;;;2.08;;
14346;SDS011;7257;52.158;9.968;2022-07-10T00:25:09;2.95;;;1.92;;
14346;SDS011;7257;52.158;9.968;2022-07-10T00:25:32;2.60;;;1.73;;
14346;SDS011;7257;52.158;9.968;2022-07-10T00:25:53;2.33;;;1.83;;
14346;SDS011;7257;52.158;9.968;2022-07-10T00:26:14;3.33;;;2.28;;
14346;SDS011;7257;52.158;9.968;2022-07-10T00:26:36;3.40;;;2.15;;
14346;SDS011;7257;52.158;9.968;2022-07-10T00:26:57;2.88;;;1.85;;
14346;SDS011;7257;52.158;9.968;2022-07-10T00:27:18;2.30;;;1.27;;
14346;SDS011;7257;52.158;9.968;2022-07-10T00:27:40;2.92;;;1.20;;
14346;SDS011;7257;52.158;9.968;2022-07-10T00:28:02;2.95;;;1.70;;
14346;SDS011;7257;52.158;9.968;2022-07-10T00:28:24;3.50;;;1.70;;
14346;SDS011;7257;52.158;9.968;2022-07-10T00:28:45;3.13;;;1.77;;
14346;SDS011;7257;52.158;9.968;2022-07-10T00:29:08;3.10;;;1.50;;
14346;SDS011;7257;52.158;9.968;2022-07-10T00:29:30;2.53;;;1.63;;
14346;SDS011;7257;52.158;9.968;2022-07-10T00:29:51;2.00;;;1.40;;
14346;SDS011;7257;52.158;9.968;2022-07-10T00:30:12;2.08;;;1.35;;
14346;SDS011;7257;52.158;9.968;2022-07-10T00:30:34;2.28;;;1.15;;
14346;SDS011;7257;52.158;9.968;2022-07-10T00:30:56;2.58;;;1.50;;
14346;SDS011;7257;52.158;9.968;2022-07-10T00:31:19;3.08;;;2.30;;
14346;SDS011;7257;52.158;9.968;2022-07-10T00:31:40;3.87;;;2.50;;
14346;SDS011;7257;52.158;9.968;2022-07-10T00:32:01;4.25;;;2.85;;
14346;SDS011;7257;52.158;9.968;2022-07-10T00:32:22;4.63;;;2.35;;
14346;SDS011;7257;52.158;9.968;2022-07-10T00:32:47;3.70;;;1.83;;
14346;SDS011;7257;52.158;9.968;2022-07-10T00:33:08;2.90;;;1.45;;
14346;SDS011;7257;52.158;9.968;2022-07-10T00:33:29;2.70;;;1.42;;
14346;SDS011;7257;52.158;9.968;2022-07-10T00:33:52;3.15;;;1.50;;
14346;SDS011;7257;52.158;9.968;2022-07-10T00:34:14;3.00;;;1.80;;
14346;SDS011;7257;52.158;9.968;2022-07-10T00:34:35;3.05;;;1.70;;
14346;SDS011;7257;52.158;9.968;2022-07-10T00:34:56;2.33;;;1.67;;
14346;SDS011;7257;52.158;9.968;2022-07-10T00:35:17;2.28;;;1.40;;
14346;SDS011;7257;52.158;9.968;2022-07-10T00:35:39;2.83;;;1.33;;
14346;SDS011;7257;52.158;9.968;2022-07-10T00:36:03;3.00;;;1.40;;
14346;SDS011;7257;52.158;9.968;2022-07-10T00:36:25;2.80;;;1.70;;
14346;SDS011;7257;52.158;9.968;2022-07-10T00:36:46;2.53;;;2.22;;
14346;SDS011;7257;52.158;9.968;2022-07-10T00:37:11;2.92;;;2.63;;
14346;SDS011;7257;52.158;9.968;2022-07-10T00:37:33;3.92;;;1.98;;
14346;SDS011;7257;52.158;9.968;2022-07-10T00:37:57;3.80;;;1.60;;
14346;SDS011;7257;52.158;9.968;2022-07-10T00:38:17;3.10;;;1.27;;
14346;SDS011;7257;52.158;9.968;2022-07-10T00:38:38;1.97;;;1.13;;
14346;SDS011;7257;52.158;9.968;2022-07-10T00:39:00;2.05;;;1.30;;
14346;SDS011;7257;52.158;9.968;2022-07-10T00:39:21;2.42;;;1.83;;
14346;SDS011;7257;52.158;9.968;2022-07-10T00:39:42;4.47;;;2.38;;
14346;SDS011;7257;52.158;9.968;2022-07-10T00:40:04;7.57;;;3.07;;
14346;SDS011;7257;52.158;9.968;2022-07-10T00:40:27;6.30;;;2.47;;
14346;SDS011;7257;52.158;9.968;2022-07-10T00:40:48;4.88;;;2.35;;
14346;SDS011;7257;52.158;9.968;2022-07-10T00:41:09;2.47;;;2.28;;
14346;SDS011;7257;52.158;9.968;2022-07-10T00:41:30;2.60;;;2.28;;
14346;SDS011;7257;52.158;9.968;2022-07-10T00:41:51;3.35;;;2.10;;
14346;SDS011;7257;52.158;9.968;2022-07-10T00:42:13;4.28;;;2.63;;
14346;SDS011;7257;52.158;9.968;2022-07-10T00:42:35;3.65;;;2.25;;
14346;SDS011;7257;52.158;9.968;2022-07-10T00:42:56;3.40;;;1.83;;
14346;SDS011;7257;52.158;9.968;2022-07-10T00:43:19;3.00;;;1.27;;
14346;SDS011;7257;52.158;9.968;2022-07-10T00:43:52;2.78;;;1.50;;
14346;SDS011;7257;52.158;9.968;2022-07-10T00:44:14;1.90;;;1.30;;
14346;SDS011;7257;52.158;9.968;2022-07-10T00:44:35;2.30;;;1.30;;
14346;SDS011;7257;52.158;9.968;2022-07-10T00:44:57;2.90;;;1.80;;
14346;SDS011;7257;52.158;9.968;2022-07-10T00:45:18;2.55;;;2.05;;
14346;SDS011;7257;52.158;9.968;2022-07-10T00:45:39;2.70;;;2.45;;
14346;SDS011;7257;52.158;9.968;2022-07-10T00:46:00;2.63;;;2.42;;
14346;SDS011;7257;52.158;9.968;2022-07-10T00:46:22;2.95;;;2.63;;
14346;SDS011;7257;52.158;9.968;2022-07-10T00:46:43;3.10;;;2.20;;
14346;SDS011;7257;52.158;9.968;2022-07-10T00:47:04;3.63;;;1.70;;
14346;SDS011;7257;52.158;9.968;2022-07-10T00:47:27;3.35;;;1.42;;
14346;SDS011;7257;52.158;9.968;2022-07-10T00:47:49;3.60;;;1.80;;
14346;SDS011;7257;52.158;9.968;2022-07-10T00:48:10;2.67;;;1.63;;
14346;SDS011;7257;52.158;9.968;2022-07-10T00:48:31;2.25;;;1.48;;
14346;SDS011;7257;52.158;9.968;2022-07-10T00:48:52;2.17;;;1.48;;
14346;SDS011;7257;52.158;9.968;2022-07-10T00:49:13;2.15;;;1.60;;
14346;SDS011;7257;52.158;9.968;2022-07-10T00:49:35;2.22;;;1.80;;
14346;SDS011;7257;52.158;9.968;2022-07-10T00:49:57;2.50;;;1.73;;
14346;SDS011;7257;52.158;9.968;2022-07-10T00:50:19;2.10;;;1.55;;
14346;SDS011;7257;52.158;9.968;2022-07-10T00:50:40;1.73;;;1.33;;
14346;SDS011;7257;52.158;9.968;2022-07-10T00:51:03;1.90;;;1.27;;
14346;SDS011;7257;52.158;9.968;2022-07-10T00:51:25;2.58;;;1.80;;
14346;SDS011;7257;52.158;9.968;2022-07-10T00:51:47;2.78;;;2.10;;
14346;SDS011;7257;52.158;9.968;2022-07-10T00:52:10;3.08;;;2.10;;
14346;SDS011;7257;52.158;9.968;2022-07-10T00:52:33;3.47;;;2.10;;
14346;SDS011;7257;52.158;9.968;2022-07-10T00:52:58;3.40;;;1.90;;
14346;SDS011;7257;52.158;9.968;2022-07-10T00:53:20;3.17;;;1.88;;
14346;SDS011;7257;52.158;9.968;2022-07-10T00:53:41;2.97;;;2.05;;
14346;SDS011;7257;52.158;9.968;2022-07-10T00:54:04;2.72;;;1.98;;
14346;SDS011;7257;52.158;9.968;2022-07-10T00:54:26;2.65;;;1.60;;
14346;SDS011;7257;52.158;9.968;2022-07-10T00:54:48;2.40;;;1.50;;
14346;SDS011;7257;52.158;9.968;2022-07-10T00:55:10;2.80;;;1.38;;
14346;SDS011;7257;52.158;9.968;2022-07-10T00:55:34;2.35;;;1.20;;
14346;SDS011;7257;52.158;9.968;2022-07-10T00:55:56;3.30;;;1.60;;
14346;SDS011;7257;52.158;9.968;2022-07-10T00:56:19;2.95;;;2.00;;
14346;SDS011;7257;52.158;9.968;2022-07-10T00:56:43;1.70;;;1.60;;
14346;SDS011;7257;52.158;9.968;2022-07-10T00:57:04;1.85;;;1.10;;
14346;SDS011;7257;52.158;9.968;2022-07-10T00:57:26;3.25;;;1.23;;
14346;SDS011;7257;52.158;9.968;2022-07-10T00:57:48;5.78;;;1.63;;
14346;SDS011;7257;52.158;9.968;2022-07-10T00:58:10;5.22;;;1.65;;
14346;SDS011;7257;52.158;9.968;2022-07-10T00:58:32;2.13;;;1.23;;
14346;SDS011;7257;52.158;9.968;2022-07-10T00:58:55;2.10;;;1.10;;
14346;SDS011;7257;52.158;9.968;2022-07-10T00:59:16;2.00;;;1.27;;
14346;SDS011;7257;52.158;9.968;2022-07-10T00:59:38;3.60;;;1.80;;
14346;SDS011;7257;52.158;9.968;2022-07-10T00:59:59;3.70;;;2.05;;
14346;SDS011;7257;52.158;9.968;2022-07-10T01:00:21;4.32;;;2.08;;
14346;SDS011;7257;52.158;9.968;2022-07-10T01:00:42;4.25;;;1.65;;
14346;SDS011;7257;52.158;9.968;2022-07-10T01:01:04;2.80;;;1.40;;
14346;SDS011;7257;52.158;9.968;2022-07-10T01:01:26;2.83;;;1.58;;
14346;SDS011;7257;52.158;9.968;2022-07-10T01:01:47;2.17;;;1.90;;
14346;SDS011;7257;52.158;9.968;2022-07-10T01:02:08;2.58;;;1.92;;
14346;SDS011;7257;52.158;9.968;2022-07-10T01:02:31;2.40;;;1.77;;
14346;SDS011;7257;52.158;9.968;2022-07-10T01:02:52;2.88;;;1.40;;
14346;SDS011;7257;52.158;9.968;2022-07-10T01:03:13;2.58;;;1.27;;
14346;SDS011;7257;52.158;9.968;2022-07-10T01:03:34;2.80;;;1.40;;
14346;SDS011;7257;52.158;9.968;2022-07-10T01:03:56;1.88;;;1.67;;
14346;SDS011;7257;52.158;9.968;2022-07-10T01:04:18;2.13;;;1.85;;
14346;SDS011;7257;52.158;9.968;2022-07-10T01:04:40;2.92;;;1.77;;
14346;SDS011;7257;52.158;9.968;2022-07-10T01:05:02;2.83;;;1.52;;
14346;SDS011;7257;52.158;9.968;2022-07-10T01:05:24;3.45;;;1.77;;
14346;SDS011;7257;52.158;9.968;2022-07-10T01:05:45;2.80;;;1.45;;
14346;SDS011;7257;52.158;9.968;2022-07-10T01:06:07;4.03;;;1.48;;
14346;SDS011;7257;52.158;9.968;2022-07-10T01:06:28;3.20;;;1.55;;
14346;SDS011;7257;52.158;9.968;2022-07-10T01:06:49;3.65;;;1.88;;
14346;SDS011;7257;52.158;9.968;2022-07-10T01:07:11;2.83;;;2.08;;
14346;SDS011;7257;52.158;9.968;2022-07-10T01:07:35;3.60;;;1.75;;
14346;SDS011;7257;52.158;9.968;2022-07-10T01:07:57;2.95;;;1.20;;
14346;SDS011;7257;52.158;9.968;2022-07-10T01:08:18;2.60;;;1.40;;
14346;SDS011;7257;52.158;9.968;2022-07-10T01:08:39;2.78;;;1.50;;
14346;SDS011;7257;52.158;9.968;2022-07-10T01:09:00;4.10;;;1.45;;
14346;SDS011;7257;52.158;9.968;2022-07-10T01:09:22;4.07;;;1.60;;
14346;SDS011;7257;52.158;9.968;2022-07-10T01:09:43;3.13;;;1.80;;
14346;SDS011;7257;52.158;9.968;2022-07-10T01:10:05;2.83;;;1.90;;
14346;SDS011;7257;52.158;9.968;2022-07-10T01:10:26;2.95;;;1.63;;
14346;SDS011;7257;52.158;9.968;2022-07-10T01:10:48;2.53;;;1.13;;
14346;SDS011;7257;52.158;9.968;2022-07-10T01:11:10;3.40;;;1.30;;
14346;SDS011;7257;52.158;9.968;2022-07-10T01:11:31;3.58;;;1.63;;
14346;SDS011;7257;52.158;9.968;2022-07-10T01:11:58;4.93;;;1.92;;
14346;SDS011;7257;52.158;9.968;2022-07-10T01:12:20;3.75;;;1.55;;
14346;SDS011;7257;52.158;9.968;2022-07-10T01:12:42;4.10;;;1.48;;
14346;SDS011;7257;52.158;9.968;2022-07-10T01:13:05;2.30;;;1.40;;
14346;SDS011;7257;52.158;9.968;2022-07-10T01:13:27;2.70;;;1.42;;
14346;SDS011;7257;52.158;9.968;2022-07-10T01:13:49;2.90;;;1.70;;
14346;SDS011;7257;52.158;9.968;2022-07-10T01:14:10;2.78;;;1.70;;
14346;SDS011;7257;52.158;9.968;2022-07-10T01:14:33;3.75;;;1.90;;
14346;SDS011;7257;52.158;9.968;2022-07-10T01:14:55;3.85;;;1.80;;
14346;SDS011;7257;52.158;9.968;2022-07-10T01:15:16;4.78;;;1.90;;
14346;SDS011;7257;52.158;9.968;2022-07-10T01:15:37;3.97;;;1.58;;
14346;SDS011;7257;52.158;9.968;2022-07-10T01:16:01;2.63;;;1.63;;
14346;SDS011;7257;52.158;9.968;2022-07-10T01:16:23;2.20;;;1.33;;
14346;SDS011;7257;52.158;9.968;2022-07-10T01:16:44;1.45;;;1.13;;
14346;SDS011;7257;52.158;9.968;2022-07-10T01:17:05;1.10;;;0.82;;
14346;SDS011;7257;52.158;9.968;2022-07-10T01:17:28;1.30;;;1.10;;
14346;SDS011;7257;52.158;9.968;2022-07-10T01:17:50;2.38;;;1.40;;
14346;SDS011;7257;52.158;9.968;2022-07-10T01:18:13;3.13;;;1.52;;
14346;SDS011;7257;52.158;9.968;2022-07-10T01:18:34;2.92;;;1.70;;
14346;SDS011;7257;52.158;9.968;2022-07-10T01:18:55;2.00;;;1.48;;
14346;SDS011;7257;52.158;9.968;2022-07-10T01:19:17;2.35;;;1.15;;
14346;SDS011;7257;52.158;9.968;2022-07-10T01:19:40;4.00;;;1.20;;
14346;SDS011;7257;52.158;9.968;2022-07-10T01:20:04;4.57;;;1.30;;
14346;SDS011;7257;52.158;9.968;2022-07-10T01:20:29;4.78;;;1.70;;
14346;SDS011;7257;52.158;9.968;2022-07-10T01:20:52;5.40;;;1.98;;
14346;SDS011;7257;52.158;9.968;2022-07-10T01:21:24;4.90;;;1.80;;
14346;SDS011;7257;52.158;9.968;2022-07-10T01:21:45;2.60;;;1.30;;
14346;SDS011;7257;52.158;9.968;2022-07-10T01:22:06;3.45;;;1.70;;
14346;SDS011;7257;52.158;9.968;2022-07-10T01:22:27;3.75;;;1.90;;
14346;SDS011;7257;52.158;9.968;2022-07-10T01:22:51;3.55;;;2.10;;
14346;SDS011;7257;52.158;9.968;2022-07-10T01:23:12;2.70;;;1.92;;
14346;SDS011;7257;52.158;9.968;2022-07-10T01:23:33;2.95;;;1.95;;
14346;SDS011;7257;52.158;9.968;2022-07-10T01:23:54;3.15;;;2.03;;
14346;SDS011;7257;52.158;9.968;2022-07-10T01:24:16;2.78;;;1.92;;
14346;SDS011;7257;52.158;9.968;2022-07-10T01:24:37;2.13;;;1.52;;
14346;SDS011;7257;52.158;9.968;2022-07-10T01:24:58;2.55;;;1.17;;
14346;SDS011;7257;52.158;9.968;2022-07-10T01:25:21;3.40;;;1.30;;
14346;SDS011;7257;52.158;9.968;2022-07-10T01:25:42;4.32;;;1.50;;
14346;SDS011;7257;52.158;9.968;2022-07-10T01:26:04;4.00;;;1.80;;
14346;SDS011;7257;52.158;9.968;2022-07-10T01:26:25;2.92;;;1.40;;
14346;SDS011;7257;52.158;9.968;2022-07-10T01:26:46;3.55;;;1.30;;
14346;SDS011;7257;52.158;9.968;2022-07-10T01:27:07;4.00;;;1.30;;
14346;SDS011;7257;52.158;9.968;2022-07-10T01:27:29;4.00;;;1.30;;
14346;SDS011;7257;52.158;9.968;2022-07-10T01:27:51;2.40;;;1.30;;
14346;SDS011;7257;52.158;9.968;2022-07-10T01:28:12;2.08;;;1.27;;
14346;SDS011;7257;52.158;9.968;2022-07-10T01:28:33;1.90;;;1.30;;
14346;SDS011;7257;52.158;9.968;2022-07-10T01:28:54;1.95;;;1.35;;
14346;SDS011;7257;52.158;9.968;2022-07-10T01:29:16;2.00;;;1.20;;
14346;SDS011;7257;52.158;9.968;2022-07-10T01:29:37;2.30;;;1.02;;
14346;SDS011;7257;52.158;9.968;2022-07-10T01:29:59;2.65;;;1.27;;
14346;SDS011;7257;52.158;9.968;2022-07-10T01:30:20;2.50;;;1.50;;
14346;SDS011;7257;52.158;9.968;2022-07-10T01:30:41;2.65;;;2.20;;
14346;SDS011;7257;52.158;9.968;2022-07-10T01:31:02;3.38;;;2.25;;
14346;SDS011;7257;52.158;9.968;2022-07-10T01:31:25;4.00;;;2.20;;
14346;SDS011;7257;52.158;9.968;2022-07-10T01:31:46;3.95;;;1.67;;
14346;SDS011;7257;52.158;9.968;2022-07-10T01:32:07;2.67;;;1.27;;
14346;SDS011;7257;52.158;9.968;2022-07-10T01:32:35;4.40;;;1.30;;
14346;SDS011;7257;52.158;9.968;2022-07-10T01:32:58;4.47;;;1.30;;
14346;SDS011;7257;52.158;9.968;2022-07-10T01:33:19;2.67;;;1.20;;
14346;SDS011;7257;52.158;9.968;2022-07-10T01:33:40;2.83;;;1.20;;
14346;SDS011;7257;52.158;9.968;2022-07-10T01:34:04;2.20;;;1.20;;
14346;SDS011;7257;52.158;9.968;2022-07-10T01:34:28;3.10;;;1.35;;
14346;SDS011;7257;52.158;9.968;2022-07-10T01:34:49;2.33;;;1.17;;
14346;SDS011;7257;52.158;9.968;2022-07-10T01:35:13;2.63;;;1.10;;
14346;SDS011;7257;52.158;9.968;2022-07-10T01:35:34;2.42;;;1.30;;
14346;SDS011;7257;52.158;9.968;2022-07-10T01:35:56;3.00;;;1.30;;
14346;SDS011;7257;52.158;9.968;2022-07-10T01:36:19;5.05;;;1.40;;
14346;SDS011;7257;52.158;9.968;2022-07-10T01:36:40;4.90;;;1.20;;
14346;SDS011;7257;52.158;9.968;2022-07-10T01:37:01;3.42;;;1.30;;
14346;SDS011;7257;52.158;9.968;2022-07-10T01:37:22;3.60;;;1.60;;
14346;SDS011;7257;52.158;9.968;2022-07-10T01:37:43;3.58;;;1.77;;
14346;SDS011;7257;52.158;9.968;2022-07-10T01:38:06;3.13;;;1.55;;
14346;SDS011;7257;52.158;9.968;2022-07-10T01:38:29;1.40;;;1.13;;
14346;SDS011;7257;52.158;9.968;2022-07-10T01:38:50;1.98;;;1.30;;
14346;SDS011;7257;52.158;9.968;2022-07-10T01:39:11;3.10;;;1.70;;
14346;SDS011;7257;52.158;9.968;2022-07-10T01:39:33;4.25;;;1.75;;
14346;SDS011;7257;52.158;9.968;2022-07-10T01:39:54;3.55;;;1.45;;
14346;SDS011;7257;52.158;9.968;2022-07-10T01:40:18;3.40;;;1.23;;
14346;SDS011;7257;52.158;9.968;2022-07-10T01:40:39;3.13;;;1.40;;
14346;SDS011;7257;52.158;9.968;2022-07-10T01:41:00;4.47;;;1.60;;
14346;SDS011;7257;52.158;9.968;2022-07-10T01:41:22;4.30;;;1.80;;
14346;SDS011;7257;52.158;9.968;2022-07-10T01:41:44;3.67;;;1.90;;
14346;SDS011;7257;52.158;9.968;2022-07-10T01:42:07;2.75;;;1.88;;
14346;SDS011;7257;52.158;9.968;2022-07-10T01:42:29;2.67;;;2.00;;
14346;SDS011;7257;52.158;9.968;2022-07-10T01:42:50;3.20;;;1.93;;
14346;SDS011;7257;52.158;9.968;2022-07-10T01:43:11;3.70;;;1.57;;
14346;SDS011;7257;52.158;9.968;2022-07-10T01:43:32;3.78;;;1.20;;
14346;SDS011;7257;52.158;9.968;2022-07-10T01:43:53;3.35;;;1.20;;
14346;SDS011;7257;52.158;9.968;2022-07-10T01:44:15;3.28;;;1.40;;
14346;SDS011;7257;52.158;9.968;2022-07-10T01:44:36;2.63;;;1.40;;
14346;SDS011;7257;52.158;9.968;2022-07-10T01:44:57;2.65;;;1.38;;
14346;SDS011;7257;52.158;9.968;2022-07-10T01:45:18;2.50;;;1.10;;
14346;SDS011;7257;52.158;9.968;2022-07-10T01:45:40;2.70;;;1.20;;
14346;SDS011;7257;52.158;9.968;2022-07-10T01:46:04;2.58;;;1.50;;
14346;SDS011;7257;52.158;9.968;2022-07-10T01:46:25;1.80;;;1.50;;
14346;SDS011;7257;52.158;9.968;2022-07-10T01:46:47;2.30;;;1.80;;
14346;SDS011;7257;52.158;9.968;2022-07-10T01:47:09;3.22;;;1.77;;
14346;SDS011;7257;52.158;9.968;2022-07-10T01:47:29;3.60;;;1.55;;
14346;SDS011;7257;52.158;9.968;2022-07-10T01:47:50;3.70;;;1.50;;
14346;SDS011;7257;52.158;9.968;2022-07-10T01:48:15;3.83;;;1.77;;
14346;SDS011;7257;52.158;9.968;2022-07-10T01:48:36;3.25;;;1.63;;
14346;SDS011;7257;52.158;9.968;2022-07-10T01:48:57;3.72;;;1.58;;
14346;SDS011;7257;52.158;9.968;2022-07-10T01:49:18;3.00;;;1.90;;
14346;SDS011;7257;52.158;9.968;2022-07-10T01:49:40;3.30;;;2.17;;
14346;SDS011;7257;52.158;9.968;2022-07-10T01:50:01;4.13;;;2.17;;
14346;SDS011;7257;52.158;9.968;2022-07-10T01:50:23;6.53;;;1.83;;
14346;SDS011;7257;52.158;9.968;2022-07-10T01:50:45;5.85;;;1.40;;
14346;SDS011;7257;52.158;9.968;2022-07-10T01:51:08;5.03;;;1.52;;
14346;SDS011;7257;52.158;9.968;2022-07-10T01:51:30;4.65;;;2.10;;
14346;SDS011;7257;52.158;9.968;2022-07-10T01:51:51;5.15;;;2.53;;
14346;SDS011;7257;52.158;9.968;2022-07-10T01:52:12;5.20;;;2.35;;
14346;SDS011;7257;52.158;9.968;2022-07-10T01:52:34;6.28;;;2.55;;
14346;SDS011;7257;52.158;9.968;2022-07-10T01:52:55;4.28;;;2.03;;
14346;SDS011;7257;52.158;9.968;2022-07-10T01:53:24;3.40;;;1.63;;
14346;SDS011;7257;52.158;9.968;2022-07-10T01:53:48;3.63;;;2.00;;
14346;SDS011;7257;52.158;9.968;2022-07-10T01:54:10;3.85;;;1.95;;
14346;SDS011;7257;52.158;9.968;2022-07-10T01:54:31;1.95;;;1.30;;
14346;SDS011;7257;52.158;9.968;2022-07-10T01:54:56;2.05;;;1.10;;
14346;SDS011;7257;52.158;9.968;2022-07-10T01:55:17;1.98;;;1.00;;
14346;SDS011;7257;52.158;9.968;2022-07-10T01:55:38;1.40;;;0.98;;
14346;SDS011;7257;52.158;9.968;2022-07-10T01:56:00;1.92;;;1.17;;
14346;SDS011;7257;52.158;9.968;2022-07-10T01:56:23;2.40;;;1.30;;
14346;SDS011;7257;52.158;9.968;2022-07-10T01:56:44;3.20;;;1.27;;
14346;SDS011;7257;52.158;9.968;2022-07-10T01:57:05;2.83;;;1.23;;
14346;SDS011;7257;52.158;9.968;2022-07-10T01:57:27;2.80;;;1.45;;
14346;SDS011;7257;52.158;9.968;2022-07-10T01:57:48;2.60;;;1.73;;
14346;SDS011;7257;52.158;9.968;2022-07-10T01:58:09;3.15;;;1.83;;
14346;SDS011;7257;52.158;9.968;2022-07-10T01:58:30;3.53;;;1.75;;
14346;SDS011;7257;52.158;9.968;2022-07-10T01:58:51;2.78;;;1.73;;
14346;SDS011;7257;52.158;9.968;2022-07-10T01:59:13;2.15;;;1.63;;
14346;SDS011;7257;52.158;9.968;2022-07-10T01:59:34;1.80;;;1.33;;
14346;SDS011;7257;52.158;9.968;2022-07-10T01:59:55;2.03;;;1.30;;
14346;SDS011;7257;52.158;9.968;2022-07-10T02:00:16;2.40;;;1.20;;
14346;SDS011;7257;52.158;9.968;2022-07-10T02:00:40;2.45;;;1.27;;
14346;SDS011;7257;52.158;9.968;2022-07-10T02:01:01;3.17;;;1.40;;
14346;SDS011;7257;52.158;9.968;2022-07-10T02:01:22;2.65;;;1.27;;
14346;SDS011;7257;52.158;9.968;2022-07-10T02:01:43;2.30;;;1.25;;
14346;SDS011;7257;52.158;9.968;2022-07-10T02:02:05;2.00;;;1.25;;
14346;SDS011;7257;52.158;9.968;2022-07-10T02:02:26;2.55;;;1.80;;
14346;SDS011;7257;52.158;9.968;2022-07-10T02:02:47;2.30;;;1.98;;
14346;SDS011;7257;52.158;9.968;2022-07-10T02:03:23;2.58;;;1.67;;
14346;SDS011;7257;52.158;9.968;2022-07-10T02:04:03;2.83;;;1.10;;
14346;SDS011;7257;52.158;9.968;2022-07-10T02:04:42;2.80;;;1.20;;
14346;SDS011;7257;52.158;9.968;2022-07-10T02:05:04;2.50;;;1.30;;
14346;SDS011;7257;52.158;9.968;2022-07-10T02:05:25;1.60;;;1.30;;
14346;SDS011;7257;52.158;9.968;2022-07-10T02:05:46;4.40;;;1.35;;
14346;SDS011;7257;52.158;9.968;2022-07-10T02:06:09;4.47;;;1.40;;
14346;SDS011;7257;52.158;9.968;2022-07-10T02:06:30;4.43;;;1.30;;
14346;SDS011;7257;52.158;9.968;2022-07-10T02:06:51;2.10;;;1.15;;
14346;SDS011;7257;52.158;9.968;2022-07-10T02:07:15;2.20;;;1.10;;
14346;SDS011;7257;52.158;9.968;2022-07-10T02:07:37;2.40;;;1.10;;
14346;SDS011;7257;52.158;9.968;2022-07-10T02:07:58;2.30;;;1.00;;
14346;SDS011;7257;52.158;9.968;2022-07-10T02:08:22;2.75;;;1.10;;
14346;SDS011;7257;52.158;9.968;2022-07-10T02:08:43;3.35;;;1.20;;
14346;SDS011;7257;52.158;9.968;2022-07-10T02:09:05;3.65;;;1.35;;
14346;SDS011;7257;52.158;9.968;2022-07-10T02:09:26;3.20;;;1.70;;
14346;SDS011;7257;52.158;9.968;2022-07-10T02:09:47;2.95;;;2.25;;
14346;SDS011;7257;52.158;9.968;2022-07-10T02:10:08;2.85;;;2.58;;
14346;SDS011;7257;52.158;9.968;2022-07-10T02:10:30;2.70;;;2.50;;
14346;SDS011;7257;52.158;9.968;2022-07-10T02:10:51;2.17;;;1.90;;
14346;SDS011;7257;52.158;9.968;2022-07-10T02:11:12;2.10;;;1.40;;
14346;SDS011;7257;52.158;9.968;2022-07-10T02:11:33;1.90;;;1.15;;
14346;SDS011;7257;52.158;9.968;2022-07-10T02:11:55;1.77;;;1.20;;
14346;SDS011;7257;52.158;9.968;2022-07-10T02:12:16;2.13;;;1.10;;
14346;SDS011;7257;52.158;9.968;2022-07-10T02:12:36;2.08;;;1.00;;
14346;SDS011;7257;52.158;9.968;2022-07-10T02:13:00;2.53;;;1.05;;
14346;SDS011;7257;52.158;9.968;2022-07-10T02:13:21;2.10;;;1.08;;
14346;SDS011;7257;52.158;9.968;2022-07-10T02:13:45;1.77;;;0.98;;
14346;SDS011;7257;52.158;9.968;2022-07-10T02:14:07;2.75;;;1.17;;
14346;SDS011;7257;52.158;9.968;2022-07-10T02:14:28;3.92;;;1.10;;